sensor_id;sensor_type;location;lat;lon;timestamp;temperature;humidity
56771;DHT22;42641;59.794;17.616;2023-07-30T00:02:16;16.60;99.90
56771;DHT22;42641;59.794;17.616;2023-07-30T00:04:43;16.50;99.90
56771;DHT22;42641;59.794;17.616;2023-07-30T00:07:10;16.50;99.90
56771;DHT22;42641;59.794;17.616;2023-07-30T00:09:38;16.50;99.90
56771;DHT22;42641;59.794;17.616;2023-07-30T00:12:05;16.50;99.90
56771;DHT22;42641;59.794;17.616;2023-07-30T00:14:32;16.50;99.90
56771;DHT22;42641;59.794;17.616;2023-07-30T00:16:59;16.40;99.90
56771;DHT22;42641;59.794;17.616;2023-07-30T00:19:25;16.40;99.90
56771;DHT22;42641;59.794;17.616;2023-07-30T00:21:52;16.30;99.90
56771;DHT22;42641;59.794;17.616;2023-07-30T00:24:18;16.20;99.90
56771;DHT22;42641;59.794;17.616;2023-07-30T00:26:45;16.20;99.90
56771;DHT22;42641;59.794;17.616;2023-07-30T00:29:11;16.20;99.90
56771;DHT22;42641;59.794;17.616;2023-07-30T00:31:38;16.20;99.90
56771;DHT22;42641;59.794;17.616;2023-07-30T00:34:04;16.20;99.90
56771;DHT22;42641;59.794;17.616;2023-07-30T00:36:31;16.10;99.90
56771;DHT22;42641;59.794;17.616;2023-07-30T00:38:57;16.10;99.90
56771;DHT22;42641;59.794;17.616;2023-07-30T00:41:24;16.10;99.90
56771;DHT22;42641;59.794;17.616;2023-07-30T00:43:50;16.10;99.90
56771;DHT22;42641;59.794;17.616;2023-07-30T00:46:17;16.10;99.90
56771;DHT22;42641;59.794;17.616;2023-07-30T00:48:43;16.10;99.90
56771;DHT22;42641;59.794;17.616;2023-07-30T00:51:13;16.10;99.90
56771;DHT22;42641;59.794;17.616;2023-07-30T00:53:41;16.00;99.90
56771;DHT22;42641;59.794;17.616;2023-07-30T00:56:07;16.00;99.90
56771;DHT22;42641;59.794;17.616;2023-07-30T00:58:35;16.00;99.90
56771;DHT22;42641;59.794;17.616;2023-07-30T01:01:02;16.00;99.90
56771;DHT22;42641;59.794;17.616;2023-07-30T01:03:28;15.90;99.90
56771;DHT22;42641;59.794;17.616;2023-07-30T01:05:56;15.90;99.90
56771;DHT22;42641;59.794;17.616;2023-07-30T01:08:22;15.90;99.90
56771;DHT22;42641;59.794;17.616;2023-07-30T01:10:50;15.90;99.90
56771;DHT22;42641;59.794;17.616;2023-07-30T01:13:17;15.90;99.90
56771;DHT22;42641;59.794;17.616;2023-07-30T01:15:44;15.90;99.90
56771;DHT22;42641;59.794;17.616;2023-07-30T01:18:11;15.90;99.90
56771;DHT22;42641;59.794;17.616;2023-07-30T01:20:37;15.90;99.90
56771;DHT22;42641;59.794;17.616;2023-07-30T01:23:04;15.90;99.90
56771;DHT22;42641;59.794;17.616;2023-07-30T01:25:35;15.90;99.90
56771;DHT22;42641;59.794;17.616;2023-07-30T01:28:03;15.90;99.90
56771;DHT22;42641;59.794;17.616;2023-07-30T01:30:38;15.90;99.90
56771;DHT22;42641;59.794;17.616;2023-07-30T01:33:07;15.90;99.90
56771;DHT22;42641;59.794;17.616;2023-07-30T01:35:35;16.00;99.90
56771;DHT22;42641;59.794;17.616;2023-07-30T01:38:03;16.00;99.90
56771;DHT22;42641;59.794;17.616;2023-07-30T01:40:32;16.10;99.90
56771;DHT22;42641;59.794;17.616;2023-07-30T01:42:59;16.10;99.90
56771;DHT22;42641;59.794;17.616;2023-07-30T01:45:25;16.00;99.90
56771;DHT22;42641;59.794;17.616;2023-07-30T01:47:52;16.00;99.90
56771;DHT22;42641;59.794;17.616;2023-07-30T01:50:18;16.00;99.90
56771;DHT22;42641;59.794;17.616;2023-07-30T01:52:45;16.00;99.90
56771;DHT22;42641;59.794;17.616;2023-07-30T01:55:12;16.00;99.90
56771;DHT22;42641;59.794;17.616;2023-07-30T01:57:38;15.90;99.90
56771;DHT22;42641;59.794;17.616;2023-07-30T02:00:06;15.90;99.90
56771;DHT22;42641;59.794;17.616;2023-07-30T02:02:32;15.90;99.90
56771;DHT22;42641;59.794;17.616;2023-07-30T02:05:01;15.90;99.90
56771;DHT22;42641;59.794;17.616;2023-07-30T02:07:28;16.00;99.90
56771;DHT22;42641;59.794;17.616;2023-07-30T02:09:55;16.00;99.90
56771;DHT22;42641;59.794;17.616;2023-07-30T02:12:22;16.00;99.90
56771;DHT22;42641;59.794;17.616;2023-07-30T02:14:48;16.10;99.90
56771;DHT22;42641;59.794;17.616;2023-07-30T02:17:15;16.10;99.90
56771;DHT22;42641;59.794;17.616;2023-07-30T02:19:42;16.20;99.90
56771;DHT22;42641;59.794;17.616;2023-07-30T02:22:08;16.20;99.90
56771;DHT22;42641;59.794;17.616;2023-07-30T02:24:35;16.20;99.90
56771;DHT22;42641;59.794;17.616;2023-07-30T02:27:01;16.20;99.90
56771;DHT22;42641;59.794;17.616;2023-07-30T02:29:28;16.10;99.90
56771;DHT22;42641;59.794;17.616;2023-07-30T02:31:54;16.10;99.90
56771;DHT22;42641;59.794;17.616;2023-07-30T02:34:21;16.10;99.90
56771;DHT22;42641;59.794;17.616;2023-07-30T02:36:49;16.10;99.90
56771;DHT22;42641;59.794;17.616;2023-07-30T02:39:15;16.10;99.90
56771;DHT22;42641;59.794;17.616;2023-07-30T02:41:41;16.10;99.90
56771;DHT22;42641;59.794;17.616;2023-07-30T02:44:08;16.10;99.90
56771;DHT22;42641;59.794;17.616;2023-07-30T02:46:34;16.10;99.90
56771;DHT22;42641;59.794;17.616;2023-07-30T02:49:01;16.10;99.90
56771;DHT22;42641;59.794;17.616;2023-07-30T02:51:27;16.10;99.90
56771;DHT22;42641;59.794;17.616;2023-07-30T02:53:58;16.10;99.90
56771;DHT22;42641;59.794;17.616;2023-07-30T02:56:25;16.10;99.90
56771;DHT22;42641;59.794;17.616;2023-07-30T02:58:52;16.10;99.90
56771;DHT22;42641;59.794;17.616;2023-07-30T03:01:18;16.10;99.90
56771;DHT22;42641;59.794;17.616;2023-07-30T03:03:44;16.20;99.90
56771;DHT22;42641;59.794;17.616;2023-07-30T03:06:11;16.20;99.90
56771;DHT22;42641;59.794;17.616;2023-07-30T03:08:37;16.20;99.90
56771;DHT22;42641;59.794;17.616;2023-07-30T03:11:04;16.20;99.90
56771;DHT22;42641;59.794;17.616;2023-07-30T03:13:31;16.20;99.90
56771;DHT22;42641;59.794;17.616;2023-07-30T03:15:57;16.30;99.90
56771;DHT22;42641;59.794;17.616;2023-07-30T03:18:24;16.30;99.90
56771;DHT22;42641;59.794;17.616;2023-07-30T03:20:50;16.20;99.90
56771;DHT22;42641;59.794;17.616;2023-07-30T03:23:16;16.20;99.90
56771;DHT22;42641;59.794;17.616;2023-07-30T03:25:43;16.20;99.90
56771;DHT22;42641;59.794;17.616;2023-07-30T03:28:09;16.20;99.90
56771;DHT22;42641;59.794;17.616;2023-07-30T03:30:36;16.20;99.90
56771;DHT22;42641;59.794;17.616;2023-07-30T03:33:02;16.20;99.90
56771;DHT22;42641;59.794;17.616;2023-07-30T03:35:29;16.20;99.90
56771;DHT22;42641;59.794;17.616;2023-07-30T03:37:55;16.20;99.90
56771;DHT22;42641;59.794;17.616;2023-07-30T03:40:23;16.30;99.90
56771;DHT22;42641;59.794;17.616;2023-07-30T03:42:49;16.30;99.90
56771;DHT22;42641;59.794;17.616;2023-07-30T03:45:16;16.20;99.90
56771;DHT22;42641;59.794;17.616;2023-07-30T03:47:42;16.30;99.90
56771;DHT22;42641;59.794;17.616;2023-07-30T03:50:09;16.30;99.90
56771;DHT22;42641;59.794;17.616;2023-07-30T03:52:35;16.30;99.90
56771;DHT22;42641;59.794;17.616;2023-07-30T03:55:02;16.40;99.90
56771;DHT22;42641;59.794;17.616;2023-07-30T03:57:28;16.50;99.90
56771;DHT22;42641;59.794;17.616;2023-07-30T03:59:55;16.40;99.90
56771;DHT22;42641;59.794;17.616;2023-07-30T04:02:21;16.50;99.90
56771;DHT22;42641;59.794;17.616;2023-07-30T04:04:48;16.50;99.90
56771;DHT22;42641;59.794;17.616;2023-07-30T04:07:16;16.50;99.90
56771;DHT22;42641;59.794;17.616;2023-07-30T04:09:42;16.60;99.90
56771;DHT22;42641;59.794;17.616;2023-07-30T04:12:09;16.70;99.90
56771;DHT22;42641;59.794;17.616;2023-07-30T04:14:37;16.80;99.90
56771;DHT22;42641;59.794;17.616;2023-07-30T04:17:03;16.70;99.90
56771;DHT22;42641;59.794;17.616;2023-07-30T04:19:30;16.70;99.90
56771;DHT22;42641;59.794;17.616;2023-07-30T04:21:56;16.70;99.90
56771;DHT22;42641;59.794;17.616;2023-07-30T04:24:24;16.80;99.90
56771;DHT22;42641;59.794;17.616;2023-07-30T04:26:52;16.80;99.90
56771;DHT22;42641;59.794;17.616;2023-07-30T04:29:18;16.90;99.90
56771;DHT22;42641;59.794;17.616;2023-07-30T04:31:45;17.00;99.90
56771;DHT22;42641;59.794;17.616;2023-07-30T04:34:11;17.10;99.90
56771;DHT22;42641;59.794;17.616;2023-07-30T04:36:38;17.10;99.90
56771;DHT22;42641;59.794;17.616;2023-07-30T04:39:05;17.10;99.90
56771;DHT22;42641;59.794;17.616;2023-07-30T04:41:33;17.20;99.90
56771;DHT22;42641;59.794;17.616;2023-07-30T04:44:00;17.20;99.90
56771;DHT22;42641;59.794;17.616;2023-07-30T04:46:28;17.20;99.90
56771;DHT22;42641;59.794;17.616;2023-07-30T04:48:56;17.20;99.90
56771;DHT22;42641;59.794;17.616;2023-07-30T04:51:22;17.20;99.90
56771;DHT22;42641;59.794;17.616;2023-07-30T04:53:49;17.20;99.90
56771;DHT22;42641;59.794;17.616;2023-07-30T04:56:15;17.20;99.90
56771;DHT22;42641;59.794;17.616;2023-07-30T04:58:42;17.20;99.90
56771;DHT22;42641;59.794;17.616;2023-07-30T05:01:08;17.30;99.90
56771;DHT22;42641;59.794;17.616;2023-07-30T05:03:35;17.40;99.90
56771;DHT22;42641;59.794;17.616;2023-07-30T05:06:01;17.40;99.90
56771;DHT22;42641;59.794;17.616;2023-07-30T05:08:28;17.40;99.90
56771;DHT22;42641;59.794;17.616;2023-07-30T05:10:54;17.40;99.90
56771;DHT22;42641;59.794;17.616;2023-07-30T05:13:20;17.40;99.90
56771;DHT22;42641;59.794;17.616;2023-07-30T05:15:47;17.40;99.90
56771;DHT22;42641;59.794;17.616;2023-07-30T05:18:13;17.40;99.90
56771;DHT22;42641;59.794;17.616;2023-07-30T05:20:40;17.50;99.90
56771;DHT22;42641;59.794;17.616;2023-07-30T05:23:06;17.50;99.90
56771;DHT22;42641;59.794;17.616;2023-07-30T05:25:33;17.60;99.90
56771;DHT22;42641;59.794;17.616;2023-07-30T05:27:59;17.70;99.90
56771;DHT22;42641;59.794;17.616;2023-07-30T05:30:25;17.80;99.90
56771;DHT22;42641;59.794;17.616;2023-07-30T05:32:52;17.90;99.90
56771;DHT22;42641;59.794;17.616;2023-07-30T05:35:18;18.10;99.90
56771;DHT22;42641;59.794;17.616;2023-07-30T05:37:45;18.20;99.90
56771;DHT22;42641;59.794;17.616;2023-07-30T05:40:11;18.20;99.90
56771;DHT22;42641;59.794;17.616;2023-07-30T05:42:37;18.20;99.90
56771;DHT22;42641;59.794;17.616;2023-07-30T05:45:04;18.30;99.90
56771;DHT22;42641;59.794;17.616;2023-07-30T05:47:31;18.40;99.90
56771;DHT22;42641;59.794;17.616;2023-07-30T05:49:58;18.50;99.90
56771;DHT22;42641;59.794;17.616;2023-07-30T05:52:24;18.60;99.90
56771;DHT22;42641;59.794;17.616;2023-07-30T05:54:50;18.60;99.90
56771;DHT22;42641;59.794;17.616;2023-07-30T05:57:17;18.70;99.90
56771;DHT22;42641;59.794;17.616;2023-07-30T05:59:43;18.70;99.90
56771;DHT22;42641;59.794;17.616;2023-07-30T06:02:10;18.70;99.90
56771;DHT22;42641;59.794;17.616;2023-07-30T06:04:36;18.70;99.90
56771;DHT22;42641;59.794;17.616;2023-07-30T06:07:03;18.70;99.90
56771;DHT22;42641;59.794;17.616;2023-07-30T06:09:30;18.80;99.90
56771;DHT22;42641;59.794;17.616;2023-07-30T06:11:57;18.90;99.90
56771;DHT22;42641;59.794;17.616;2023-07-30T06:14:25;19.00;99.90
56771;DHT22;42641;59.794;17.616;2023-07-30T06:16:52;19.00;99.90
56771;DHT22;42641;59.794;17.616;2023-07-30T06:19:19;19.10;99.90
56771;DHT22;42641;59.794;17.616;2023-07-30T06:21:45;19.20;99.90
56771;DHT22;42641;59.794;17.616;2023-07-30T06:24:12;19.20;99.90
56771;DHT22;42641;59.794;17.616;2023-07-30T06:26:39;19.20;99.90
56771;DHT22;42641;59.794;17.616;2023-07-30T06:29:06;19.20;99.90
56771;DHT22;42641;59.794;17.616;2023-07-30T06:31:32;19.30;99.90
56771;DHT22;42641;59.794;17.616;2023-07-30T06:33:59;19.30;99.90
56771;DHT22;42641;59.794;17.616;2023-07-30T06:36:25;19.40;99.90
56771;DHT22;42641;59.794;17.616;2023-07-30T06:38:51;19.50;99.90
56771;DHT22;42641;59.794;17.616;2023-07-30T06:41:18;19.50;99.90
56771;DHT22;42641;59.794;17.616;2023-07-30T06:43:44;19.60;99.90
56771;DHT22;42641;59.794;17.616;2023-07-30T06:46:11;19.70;99.90
56771;DHT22;42641;59.794;17.616;2023-07-30T06:48:37;19.90;99.90
56771;DHT22;42641;59.794;17.616;2023-07-30T06:51:07;20.10;99.90
56771;DHT22;42641;59.794;17.616;2023-07-30T06:53:33;20.20;99.90
56771;DHT22;42641;59.794;17.616;2023-07-30T06:56:00;20.20;99.90
56771;DHT22;42641;59.794;17.616;2023-07-30T06:58:26;20.30;99.90
56771;DHT22;42641;59.794;17.616;2023-07-30T07:00:53;20.30;99.90
56771;DHT22;42641;59.794;17.616;2023-07-30T07:03:19;20.30;99.90
56771;DHT22;42641;59.794;17.616;2023-07-30T07:05:55;20.30;99.90
56771;DHT22;42641;59.794;17.616;2023-07-30T07:08:22;20.30;99.90
56771;DHT22;42641;59.794;17.616;2023-07-30T07:10:49;20.30;99.90
56771;DHT22;42641;59.794;17.616;2023-07-30T07:13:16;20.30;99.90
56771;DHT22;42641;59.794;17.616;2023-07-30T07:15:43;20.40;99.90
56771;DHT22;42641;59.794;17.616;2023-07-30T07:18:10;20.40;99.90
56771;DHT22;42641;59.794;17.616;2023-07-30T07:20:37;20.40;99.90
56771;DHT22;42641;59.794;17.616;2023-07-30T07:23:04;20.40;99.90
56771;DHT22;42641;59.794;17.616;2023-07-30T07:25:31;20.50;99.90
56771;DHT22;42641;59.794;17.616;2023-07-30T07:27:57;20.50;99.90
56771;DHT22;42641;59.794;17.616;2023-07-30T07:30:23;20.60;99.90
56771;DHT22;42641;59.794;17.616;2023-07-30T07:32:50;20.50;99.90
56771;DHT22;42641;59.794;17.616;2023-07-30T07:35:19;20.60;99.90
56771;DHT22;42641;59.794;17.616;2023-07-30T07:37:46;20.50;99.90
56771;DHT22;42641;59.794;17.616;2023-07-30T07:40:13;20.50;99.90
56771;DHT22;42641;59.794;17.616;2023-07-30T07:42:39;20.40;99.90
56771;DHT22;42641;59.794;17.616;2023-07-30T07:45:06;20.30;99.90
56771;DHT22;42641;59.794;17.616;2023-07-30T07:47:33;20.40;99.90
56771;DHT22;42641;59.794;17.616;2023-07-30T07:49:59;20.40;99.90
56771;DHT22;42641;59.794;17.616;2023-07-30T07:52:26;20.40;99.90
56771;DHT22;42641;59.794;17.616;2023-07-30T07:54:52;20.50;99.90
56771;DHT22;42641;59.794;17.616;2023-07-30T07:57:19;20.70;99.90
56771;DHT22;42641;59.794;17.616;2023-07-30T07:59:45;20.80;99.90
56771;DHT22;42641;59.794;17.616;2023-07-30T08:02:12;21.00;99.90
56771;DHT22;42641;59.794;17.616;2023-07-30T08:04:39;21.00;99.90
56771;DHT22;42641;59.794;17.616;2023-07-30T08:07:05;21.30;99.90
56771;DHT22;42641;59.794;17.616;2023-07-30T08:09:32;21.50;99.90
56771;DHT22;42641;59.794;17.616;2023-07-30T08:11:59;21.70;99.90
56771;DHT22;42641;59.794;17.616;2023-07-30T08:14:27;21.80;99.90
56771;DHT22;42641;59.794;17.616;2023-07-30T08:16:53;21.80;99.90
56771;DHT22;42641;59.794;17.616;2023-07-30T08:19:20;21.70;99.90
56771;DHT22;42641;59.794;17.616;2023-07-30T08:21:46;21.50;99.90
56771;DHT22;42641;59.794;17.616;2023-07-30T08:24:12;21.50;99.90
56771;DHT22;42641;59.794;17.616;2023-07-30T08:26:39;21.70;99.90
56771;DHT22;42641;59.794;17.616;2023-07-30T08:29:05;21.90;99.90
56771;DHT22;42641;59.794;17.616;2023-07-30T08:31:32;22.10;99.90
56771;DHT22;42641;59.794;17.616;2023-07-30T08:33:58;22.40;99.90
56771;DHT22;42641;59.794;17.616;2023-07-30T08:36:25;22.90;99.90
56771;DHT22;42641;59.794;17.616;2023-07-30T08:38:51;23.20;99.90
56771;DHT22;42641;59.794;17.616;2023-07-30T08:41:18;23.40;99.90
56771;DHT22;42641;59.794;17.616;2023-07-30T08:43:45;23.60;99.90
56771;DHT22;42641;59.794;17.616;2023-07-30T08:46:15;23.70;99.90
56771;DHT22;42641;59.794;17.616;2023-07-30T08:48:42;23.80;99.90
56771;DHT22;42641;59.794;17.616;2023-07-30T08:51:08;23.90;99.90
56771;DHT22;42641;59.794;17.616;2023-07-30T08:53:37;23.90;99.90
56771;DHT22;42641;59.794;17.616;2023-07-30T08:56:05;23.90;99.90
56771;DHT22;42641;59.794;17.616;2023-07-30T08:58:33;24.00;99.90
56771;DHT22;42641;59.794;17.616;2023-07-30T09:01:01;24.10;99.90
56771;DHT22;42641;59.794;17.616;2023-07-30T09:03:33;24.20;99.90
56771;DHT22;42641;59.794;17.616;2023-07-30T09:06:02;24.50;99.90
56771;DHT22;42641;59.794;17.616;2023-07-30T09:08:28;24.70;99.90
56771;DHT22;42641;59.794;17.616;2023-07-30T09:10:56;24.70;99.90
56771;DHT22;42641;59.794;17.616;2023-07-30T09:13:22;24.40;99.90
56771;DHT22;42641;59.794;17.616;2023-07-30T09:15:49;24.60;99.90
56771;DHT22;42641;59.794;17.616;2023-07-30T09:18:17;24.90;99.90
56771;DHT22;42641;59.794;17.616;2023-07-30T09:20:44;25.10;99.90
56771;DHT22;42641;59.794;17.616;2023-07-30T09:23:11;25.40;99.90
56771;DHT22;42641;59.794;17.616;2023-07-30T09:25:38;25.50;99.90
56771;DHT22;42641;59.794;17.616;2023-07-30T09:31:08;25.40;99.90
56771;DHT22;42641;59.794;17.616;2023-07-30T09:37:03;25.30;99.90
56771;DHT22;42641;59.794;17.616;2023-07-30T09:39:31;25.10;99.90
56771;DHT22;42641;59.794;17.616;2023-07-30T09:44:41;25.20;99.90
56771;DHT22;42641;59.794;17.616;2023-07-30T09:47:10;25.10;99.90
56771;DHT22;42641;59.794;17.616;2023-07-30T09:49:38;25.10;99.90
56771;DHT22;42641;59.794;17.616;2023-07-30T09:52:05;25.10;99.90
56771;DHT22;42641;59.794;17.616;2023-07-30T09:54:32;25.10;99.90
56771;DHT22;42641;59.794;17.616;2023-07-30T09:56:59;25.20;99.90
56771;DHT22;42641;59.794;17.616;2023-07-30T09:59:25;25.50;99.90
56771;DHT22;42641;59.794;17.616;2023-07-30T10:01:52;25.80;99.90
56771;DHT22;42641;59.794;17.616;2023-07-30T10:04:22;26.20;99.90
56771;DHT22;42641;59.794;17.616;2023-07-30T10:06:59;26.50;99.90
56771;DHT22;42641;59.794;17.616;2023-07-30T10:09:40;26.80;99.90
56771;DHT22;42641;59.794;17.616;2023-07-30T10:12:16;26.70;99.90
56771;DHT22;42641;59.794;17.616;2023-07-30T10:14:44;26.60;99.90
56771;DHT22;42641;59.794;17.616;2023-07-30T10:17:11;26.70;99.90
56771;DHT22;42641;59.794;17.616;2023-07-30T10:19:38;26.70;99.90
56771;DHT22;42641;59.794;17.616;2023-07-30T10:22:31;26.80;99.90
56771;DHT22;42641;59.794;17.616;2023-07-30T10:25:00;26.80;99.90
56771;DHT22;42641;59.794;17.616;2023-07-30T10:27:29;26.90;99.90
56771;DHT22;42641;59.794;17.616;2023-07-30T10:30:14;26.80;99.90
56771;DHT22;42641;59.794;17.616;2023-07-30T10:33:04;26.30;99.90
56771;DHT22;42641;59.794;17.616;2023-07-30T10:35:45;26.00;99.90
56771;DHT22;42641;59.794;17.616;2023-07-30T10:38:22;25.60;99.90
56771;DHT22;42641;59.794;17.616;2023-07-30T10:41:04;25.40;99.90
56771;DHT22;42641;59.794;17.616;2023-07-30T10:43:39;25.30;99.90
56771;DHT22;42641;59.794;17.616;2023-07-30T10:46:07;25.30;99.90
56771;DHT22;42641;59.794;17.616;2023-07-30T10:48:42;25.10;99.90
56771;DHT22;42641;59.794;17.616;2023-07-30T10:51:11;24.80;99.90
56771;DHT22;42641;59.794;17.616;2023-07-30T10:53:37;24.70;99.90
56771;DHT22;42641;59.794;17.616;2023-07-30T10:56:06;24.60;99.90
56771;DHT22;42641;59.794;17.616;2023-07-30T10:58:34;24.70;99.90
56771;DHT22;42641;59.794;17.616;2023-07-30T11:01:02;24.80;99.90
56771;DHT22;42641;59.794;17.616;2023-07-30T11:03:30;24.80;99.90
56771;DHT22;42641;59.794;17.616;2023-07-30T11:05:58;24.80;99.90
56771;DHT22;42641;59.794;17.616;2023-07-30T11:08:36;24.60;99.90
56771;DHT22;42641;59.794;17.616;2023-07-30T11:11:04;24.60;99.90
56771;DHT22;42641;59.794;17.616;2023-07-30T11:13:41;24.40;99.90
56771;DHT22;42641;59.794;17.616;2023-07-30T11:16:09;24.20;99.90
56771;DHT22;42641;59.794;17.616;2023-07-30T11:18:37;23.90;99.90
56771;DHT22;42641;59.794;17.616;2023-07-30T11:21:11;23.60;99.90
56771;DHT22;42641;59.794;17.616;2023-07-30T11:23:39;23.10;99.90
56771;DHT22;42641;59.794;17.616;2023-07-30T11:26:08;22.50;99.90
56771;DHT22;42641;59.794;17.616;2023-07-30T11:28:37;21.90;99.90
56771;DHT22;42641;59.794;17.616;2023-07-30T11:31:08;21.40;99.90
56771;DHT22;42641;59.794;17.616;2023-07-30T11:33:46;20.80;99.90
56771;DHT22;42641;59.794;17.616;2023-07-30T11:36:15;20.50;99.90
56771;DHT22;42641;59.794;17.616;2023-07-30T11:38:43;20.20;99.90
56771;DHT22;42641;59.794;17.616;2023-07-30T11:41:11;19.90;99.90
56771;DHT22;42641;59.794;17.616;2023-07-30T11:43:40;19.60;99.90
56771;DHT22;42641;59.794;17.616;2023-07-30T11:48:38;19.10;99.90
56771;DHT22;42641;59.794;17.616;2023-07-30T11:51:05;18.90;99.90
56771;DHT22;42641;59.794;17.616;2023-07-30T11:54:07;18.60;99.90
56771;DHT22;42641;59.794;17.616;2023-07-30T11:56:33;18.40;99.90
56771;DHT22;42641;59.794;17.616;2023-07-30T11:59:07;18.30;99.90
56771;DHT22;42641;59.794;17.616;2023-07-30T12:01:36;18.10;99.90
56771;DHT22;42641;59.794;17.616;2023-07-30T12:04:04;18.00;99.90
56771;DHT22;42641;59.794;17.616;2023-07-30T12:06:50;17.90;99.90
56771;DHT22;42641;59.794;17.616;2023-07-30T12:09:20;17.90;99.90
56771;DHT22;42641;59.794;17.616;2023-07-30T12:12:01;17.80;99.90
56771;DHT22;42641;59.794;17.616;2023-07-30T12:14:42;17.80;99.90
56771;DHT22;42641;59.794;17.616;2023-07-30T12:17:09;17.70;99.90
56771;DHT22;42641;59.794;17.616;2023-07-30T12:19:35;17.70;99.90
56771;DHT22;42641;59.794;17.616;2023-07-30T12:22:02;17.80;99.90
56771;DHT22;42641;59.794;17.616;2023-07-30T12:24:29;17.80;99.90
56771;DHT22;42641;59.794;17.616;2023-07-30T12:26:55;17.80;99.90
56771;DHT22;42641;59.794;17.616;2023-07-30T12:29:22;17.80;99.90
56771;DHT22;42641;59.794;17.616;2023-07-30T12:31:48;17.90;99.90
56771;DHT22;42641;59.794;17.616;2023-07-30T12:34:17;17.90;99.90
56771;DHT22;42641;59.794;17.616;2023-07-30T12:36:44;17.90;99.90
56771;DHT22;42641;59.794;17.616;2023-07-30T12:39:10;18.00;99.90
56771;DHT22;42641;59.794;17.616;2023-07-30T12:41:37;18.00;99.90
56771;DHT22;42641;59.794;17.616;2023-07-30T12:44:04;18.00;99.90
56771;DHT22;42641;59.794;17.616;2023-07-30T12:46:31;18.00;99.90
56771;DHT22;42641;59.794;17.616;2023-07-30T12:48:59;18.10;99.90
56771;DHT22;42641;59.794;17.616;2023-07-30T12:51:30;18.10;99.90
56771;DHT22;42641;59.794;17.616;2023-07-30T12:53:57;18.10;99.90
56771;DHT22;42641;59.794;17.616;2023-07-30T12:56:23;18.10;99.90
56771;DHT22;42641;59.794;17.616;2023-07-30T12:58:50;18.10;99.90
56771;DHT22;42641;59.794;17.616;2023-07-30T13:01:16;18.00;99.90
56771;DHT22;42641;59.794;17.616;2023-07-30T13:03:43;18.00;99.90
56771;DHT22;42641;59.794;17.616;2023-07-30T13:06:12;18.00;99.90
56771;DHT22;42641;59.794;17.616;2023-07-30T13:08:39;17.90;99.90
56771;DHT22;42641;59.794;17.616;2023-07-30T13:11:06;17.80;99.90
56771;DHT22;42641;59.794;17.616;2023-07-30T13:13:33;17.80;99.90
56771;DHT22;42641;59.794;17.616;2023-07-30T13:15:59;17.70;99.90
56771;DHT22;42641;59.794;17.616;2023-07-30T13:18:28;17.70;99.90
56771;DHT22;42641;59.794;17.616;2023-07-30T13:20:54;17.70;99.90
56771;DHT22;42641;59.794;17.616;2023-07-30T13:23:21;17.70;99.90
56771;DHT22;42641;59.794;17.616;2023-07-30T13:25:47;17.80;99.90
56771;DHT22;42641;59.794;17.616;2023-07-30T13:28:14;17.80;99.90
56771;DHT22;42641;59.794;17.616;2023-07-30T13:30:40;17.80;99.90
56771;DHT22;42641;59.794;17.616;2023-07-30T13:33:07;17.80;99.90
56771;DHT22;42641;59.794;17.616;2023-07-30T13:35:33;17.90;99.90
56771;DHT22;42641;59.794;17.616;2023-07-30T13:37:59;17.90;99.90
56771;DHT22;42641;59.794;17.616;2023-07-30T13:40:26;18.00;99.90
56771;DHT22;42641;59.794;17.616;2023-07-30T13:42:52;18.00;99.90
56771;DHT22;42641;59.794;17.616;2023-07-30T13:45:19;18.00;99.90
56771;DHT22;42641;59.794;17.616;2023-07-30T13:47:45;18.00;99.90
56771;DHT22;42641;59.794;17.616;2023-07-30T13:50:11;18.10;99.90
56771;DHT22;42641;59.794;17.616;2023-07-30T13:52:38;18.10;99.90
56771;DHT22;42641;59.794;17.616;2023-07-30T13:55:05;18.10;99.90
56771;DHT22;42641;59.794;17.616;2023-07-30T13:57:31;18.10;99.90
56771;DHT22;42641;59.794;17.616;2023-07-30T13:59:58;18.10;99.90
56771;DHT22;42641;59.794;17.616;2023-07-30T14:02:24;18.10;99.90
56771;DHT22;42641;59.794;17.616;2023-07-30T14:04:50;18.20;99.90
56771;DHT22;42641;59.794;17.616;2023-07-30T14:07:17;18.30;99.90
56771;DHT22;42641;59.794;17.616;2023-07-30T14:09:44;18.30;99.90
56771;DHT22;42641;59.794;17.616;2023-07-30T14:12:10;18.30;99.90
56771;DHT22;42641;59.794;17.616;2023-07-30T14:14:36;18.40;99.90
56771;DHT22;42641;59.794;17.616;2023-07-30T14:17:03;18.50;99.90
56771;DHT22;42641;59.794;17.616;2023-07-30T14:19:33;18.70;99.90
56771;DHT22;42641;59.794;17.616;2023-07-30T14:22:00;18.80;99.90
56771;DHT22;42641;59.794;17.616;2023-07-30T14:24:27;19.10;99.90
56771;DHT22;42641;59.794;17.616;2023-07-30T14:26:53;19.40;99.90
56771;DHT22;42641;59.794;17.616;2023-07-30T14:29:20;19.70;99.90
56771;DHT22;42641;59.794;17.616;2023-07-30T14:31:46;20.10;99.90
56771;DHT22;42641;59.794;17.616;2023-07-30T14:34:13;20.40;99.90
56771;DHT22;42641;59.794;17.616;2023-07-30T14:36:40;20.60;99.90
56771;DHT22;42641;59.794;17.616;2023-07-30T14:39:06;20.80;99.90
56771;DHT22;42641;59.794;17.616;2023-07-30T14:41:32;21.10;99.90
56771;DHT22;42641;59.794;17.616;2023-07-30T14:44:00;21.80;99.90
56771;DHT22;42641;59.794;17.616;2023-07-30T14:46:26;22.60;99.90
56771;DHT22;42641;59.794;17.616;2023-07-30T14:51:46;23.40;99.90
56771;DHT22;42641;59.794;17.616;2023-07-30T14:54:16;23.10;99.90
56771;DHT22;42641;59.794;17.616;2023-07-30T14:56:53;22.80;99.90
56771;DHT22;42641;59.794;17.616;2023-07-30T14:59:19;22.60;99.90
56771;DHT22;42641;59.794;17.616;2023-07-30T15:01:46;22.80;99.90
56771;DHT22;42641;59.794;17.616;2023-07-30T15:04:13;23.60;99.90
56771;DHT22;42641;59.794;17.616;2023-07-30T15:06:40;24.70;99.90
56771;DHT22;42641;59.794;17.616;2023-07-30T15:09:07;25.60;99.90
56771;DHT22;42641;59.794;17.616;2023-07-30T15:11:33;26.00;99.90
56771;DHT22;42641;59.794;17.616;2023-07-30T15:14:00;26.00;99.90
56771;DHT22;42641;59.794;17.616;2023-07-30T15:16:26;25.90;99.90
56771;DHT22;42641;59.794;17.616;2023-07-30T15:18:52;26.30;99.90
56771;DHT22;42641;59.794;17.616;2023-07-30T15:21:20;27.00;99.90
56771;DHT22;42641;59.794;17.616;2023-07-30T15:23:46;27.70;99.90
56771;DHT22;42641;59.794;17.616;2023-07-30T15:26:13;28.00;99.90
56771;DHT22;42641;59.794;17.616;2023-07-30T15:28:40;27.30;99.90
56771;DHT22;42641;59.794;17.616;2023-07-30T15:31:06;26.80;99.90
56771;DHT22;42641;59.794;17.616;2023-07-30T15:33:33;26.60;99.90